sensor_id;sensor_type;location;lat;lon;timestamp;temperature;humidity
12688;DHT22;6408;59.388;17.798;2023-02-13T00:00:41;1.40;99.90
12688;DHT22;6408;59.388;17.798;2023-02-13T00:03:08;1.30;99.90
12688;DHT22;6408;59.388;17.798;2023-02-13T00:05:36;1.30;99.90
12688;DHT22;6408;59.388;17.798;2023-02-13T00:08:04;1.20;99.90
12688;DHT22;6408;59.388;17.798;2023-02-13T00:10:32;1.10;99.90
12688;DHT22;6408;59.388;17.798;2023-02-13T00:12:59;1.00;99.90
12688;DHT22;6408;59.388;17.798;2023-02-13T00:15:27;1.10;99.90
12688;DHT22;6408;59.388;17.798;2023-02-13T00:17:56;1.00;99.90
12688;DHT22;6408;59.388;17.798;2023-02-13T00:20:24;1.00;99.90
12688;DHT22;6408;59.388;17.798;2023-02-13T00:22:51;0.90;99.90
12688;DHT22;6408;59.388;17.798;2023-02-13T00:25:19;0.90;99.90
12688;DHT22;6408;59.388;17.798;2023-02-13T00:27:48;1.10;99.90
12688;DHT22;6408;59.388;17.798;2023-02-13T00:30:18;1.10;99.90
12688;DHT22;6408;59.388;17.798;2023-02-13T00:32:46;1.10;99.90
12688;DHT22;6408;59.388;17.798;2023-02-13T00:35:15;1.10;99.90
12688;DHT22;6408;59.388;17.798;2023-02-13T00:37:43;1.10;99.90
12688;DHT22;6408;59.388;17.798;2023-02-13T00:40:11;1.20;99.90
12688;DHT22;6408;59.388;17.798;2023-02-13T00:42:38;1.40;99.90
12688;DHT22;6408;59.388;17.798;2023-02-13T00:45:06;1.50;99.90
12688;DHT22;6408;59.388;17.798;2023-02-13T00:47:34;1.50;99.90
12688;DHT22;6408;59.388;17.798;2023-02-13T00:50:02;1.50;99.90
12688;DHT22;6408;59.388;17.798;2023-02-13T00:52:31;1.50;99.90
12688;DHT22;6408;59.388;17.798;2023-02-13T00:54:59;1.50;99.90
12688;DHT22;6408;59.388;17.798;2023-02-13T00:57:26;1.50;99.90
12688;DHT22;6408;59.388;17.798;2023-02-13T00:59:56;1.50;99.90
12688;DHT22;6408;59.388;17.798;2023-02-13T01:02:24;1.60;99.90
12688;DHT22;6408;59.388;17.798;2023-02-13T01:04:52;1.60;99.90
12688;DHT22;6408;59.388;17.798;2023-02-13T01:07:19;1.50;99.90
12688;DHT22;6408;59.388;17.798;2023-02-13T01:09:49;1.60;99.90
12688;DHT22;6408;59.388;17.798;2023-02-13T01:12:16;1.60;99.90
12688;DHT22;6408;59.388;17.798;2023-02-13T01:14:43;1.60;99.90
12688;DHT22;6408;59.388;17.798;2023-02-13T01:17:11;1.60;99.90
12688;DHT22;6408;59.388;17.798;2023-02-13T01:19:40;1.60;99.90
12688;DHT22;6408;59.388;17.798;2023-02-13T01:22:08;1.60;99.90
12688;DHT22;6408;59.388;17.798;2023-02-13T01:24:36;1.60;99.90
12688;DHT22;6408;59.388;17.798;2023-02-13T01:27:06;1.60;99.90
12688;DHT22;6408;59.388;17.798;2023-02-13T01:29:33;1.50;99.90
12688;DHT22;6408;59.388;17.798;2023-02-13T01:32:01;1.50;99.90
12688;DHT22;6408;59.388;17.798;2023-02-13T01:34:30;1.50;99.90
12688;DHT22;6408;59.388;17.798;2023-02-13T01:36:57;1.50;99.90
12688;DHT22;6408;59.388;17.798;2023-02-13T01:39:25;1.60;99.90
12688;DHT22;6408;59.388;17.798;2023-02-13T01:41:52;1.60;99.90
12688;DHT22;6408;59.388;17.798;2023-02-13T01:47:27;1.60;99.90
12688;DHT22;6408;59.388;17.798;2023-02-13T01:50:04;1.70;99.90
12688;DHT22;6408;59.388;17.798;2023-02-13T01:52:33;1.70;99.90
12688;DHT22;6408;59.388;17.798;2023-02-13T01:55:03;1.70;99.90
12688;DHT22;6408;59.388;17.798;2023-02-13T01:57:31;1.70;99.90
12688;DHT22;6408;59.388;17.798;2023-02-13T02:00:03;1.80;99.90
12688;DHT22;6408;59.388;17.798;2023-02-13T02:02:36;1.80;99.90
12688;DHT22;6408;59.388;17.798;2023-02-13T02:05:06;1.80;99.90
12688;DHT22;6408;59.388;17.798;2023-02-13T02:07:35;1.80;99.90
12688;DHT22;6408;59.388;17.798;2023-02-13T02:10:07;1.80;99.90
12688;DHT22;6408;59.388;17.798;2023-02-13T02:12:38;1.90;99.90
12688;DHT22;6408;59.388;17.798;2023-02-13T02:15:08;1.80;99.90
12688;DHT22;6408;59.388;17.798;2023-02-13T02:17:38;1.80;99.90
12688;DHT22;6408;59.388;17.798;2023-02-13T02:20:16;1.80;99.90
12688;DHT22;6408;59.388;17.798;2023-02-13T02:23:15;1.80;99.90
12688;DHT22;6408;59.388;17.798;2023-02-13T02:26:13;1.80;99.90
12688;DHT22;6408;59.388;17.798;2023-02-13T02:29:22;1.70;99.90
12688;DHT22;6408;59.388;17.798;2023-02-13T02:32:07;1.70;99.90
12688;DHT22;6408;59.388;17.798;2023-02-13T02:34:45;1.70;99.90
12688;DHT22;6408;59.388;17.798;2023-02-13T02:37:26;1.70;99.90
12688;DHT22;6408;59.388;17.798;2023-02-13T02:40:02;1.70;99.90
12688;DHT22;6408;59.388;17.798;2023-02-13T02:42:38;1.70;99.90
12688;DHT22;6408;59.388;17.798;2023-02-13T02:45:14;1.70;99.90
12688;DHT22;6408;59.388;17.798;2023-02-13T02:47:51;1.70;99.90
12688;DHT22;6408;59.388;17.798;2023-02-13T02:50:40;1.80;99.90
12688;DHT22;6408;59.388;17.798;2023-02-13T02:53:16;1.80;99.90
12688;DHT22;6408;59.388;17.798;2023-02-13T02:55:53;1.70;99.90
12688;DHT22;6408;59.388;17.798;2023-02-13T02:58:27;1.70;99.90
12688;DHT22;6408;59.388;17.798;2023-02-13T03:01:16;1.70;99.90
12688;DHT22;6408;59.388;17.798;2023-02-13T03:04:16;1.70;99.90
12688;DHT22;6408;59.388;17.798;2023-02-13T03:07:06;1.70;99.90
12688;DHT22;6408;59.388;17.798;2023-02-13T03:09:39;1.60;99.90
12688;DHT22;6408;59.388;17.798;2023-02-13T03:12:29;1.70;99.90
12688;DHT22;6408;59.388;17.798;2023-02-13T03:15:17;1.70;99.90
12688;DHT22;6408;59.388;17.798;2023-02-13T03:36:46;1.60;99.90
12688;DHT22;6408;59.388;17.798;2023-02-13T03:39:43;1.70;99.90
12688;DHT22;6408;59.388;17.798;2023-02-13T03:42:19;1.60;99.90
12688;DHT22;6408;59.388;17.798;2023-02-13T03:44:53;1.60;99.90
12688;DHT22;6408;59.388;17.798;2023-02-13T03:47:35;1.60;99.90
12688;DHT22;6408;59.388;17.798;2023-02-13T03:50:05;1.60;99.90
12688;DHT22;6408;59.388;17.798;2023-02-13T03:52:38;1.70;99.90
12688;DHT22;6408;59.388;17.798;2023-02-13T03:55:10;1.70;99.90
12688;DHT22;6408;59.388;17.798;2023-02-13T03:58:00;1.70;99.90
12688;DHT22;6408;59.388;17.798;2023-02-13T04:00:49;1.60;99.90
12688;DHT22;6408;59.388;17.798;2023-02-13T04:03:21;1.60;99.90
12688;DHT22;6408;59.388;17.798;2023-02-13T04:05:53;1.60;99.90
12688;DHT22;6408;59.388;17.798;2023-02-13T04:08:24;1.60;99.90
12688;DHT22;6408;59.388;17.798;2023-02-13T04:10:54;1.60;99.90
12688;DHT22;6408;59.388;17.798;2023-02-13T04:13:28;1.50;99.90
12688;DHT22;6408;59.388;17.798;2023-02-13T04:16:04;1.30;99.90
12688;DHT22;6408;59.388;17.798;2023-02-13T04:18:32;1.20;99.90
12688;DHT22;6408;59.388;17.798;2023-02-13T04:21:01;1.20;99.90
12688;DHT22;6408;59.388;17.798;2023-02-13T04:23:32;1.30;99.90
12688;DHT22;6408;59.388;17.798;2023-02-13T04:26:02;1.30;99.90
12688;DHT22;6408;59.388;17.798;2023-02-13T04:28:31;1.30;99.90
12688;DHT22;6408;59.388;17.798;2023-02-13T04:30:59;1.40;99.90
12688;DHT22;6408;59.388;17.798;2023-02-13T04:33:26;1.50;99.90
12688;DHT22;6408;59.388;17.798;2023-02-13T04:35:53;1.50;99.90
12688;DHT22;6408;59.388;17.798;2023-02-13T04:38:21;1.50;99.90
12688;DHT22;6408;59.388;17.798;2023-02-13T04:40:50;1.50;99.90
12688;DHT22;6408;59.388;17.798;2023-02-13T04:43:17;1.50;99.90
12688;DHT22;6408;59.388;17.798;2023-02-13T04:45:47;1.60;99.90
12688;DHT22;6408;59.388;17.798;2023-02-13T04:48:14;1.60;99.90
12688;DHT22;6408;59.388;17.798;2023-02-13T04:50:42;1.60;99.90
12688;DHT22;6408;59.388;17.798;2023-02-13T04:53:09;1.60;99.90
12688;DHT22;6408;59.388;17.798;2023-02-13T04:55:37;1.60;99.90
12688;DHT22;6408;59.388;17.798;2023-02-13T04:58:06;1.70;99.90
12688;DHT22;6408;59.388;17.798;2023-02-13T05:00:33;1.70;99.90
12688;DHT22;6408;59.388;17.798;2023-02-13T05:03:04;1.70;99.90
12688;DHT22;6408;59.388;17.798;2023-02-13T05:05:32;1.70;99.90
12688;DHT22;6408;59.388;17.798;2023-02-13T05:08:00;1.70;99.90
12688;DHT22;6408;59.388;17.798;2023-02-13T05:10:28;1.70;99.90
12688;DHT22;6408;59.388;17.798;2023-02-13T05:12:55;1.70;99.90
12688;DHT22;6408;59.388;17.798;2023-02-13T05:15:24;1.60;99.90
12688;DHT22;6408;59.388;17.798;2023-02-13T05:17:52;1.50;99.90
12688;DHT22;6408;59.388;17.798;2023-02-13T05:20:19;1.40;99.90
12688;DHT22;6408;59.388;17.798;2023-02-13T05:22:48;1.30;99.90
12688;DHT22;6408;59.388;17.798;2023-02-13T05:25:34;1.30;99.90
12688;DHT22;6408;59.388;17.798;2023-02-13T05:28:02;1.20;99.90
12688;DHT22;6408;59.388;17.798;2023-02-13T05:30:51;1.20;99.90
12688;DHT22;6408;59.388;17.798;2023-02-13T05:33:17;1.20;99.90
12688;DHT22;6408;59.388;17.798;2023-02-13T05:35:45;1.10;99.90
12688;DHT22;6408;59.388;17.798;2023-02-13T05:38:12;1.10;99.90
12688;DHT22;6408;59.388;17.798;2023-02-13T05:40:40;1.00;99.90
12688;DHT22;6408;59.388;17.798;2023-02-13T05:43:07;1.10;99.90
12688;DHT22;6408;59.388;17.798;2023-02-13T05:45:34;1.10;99.90
12688;DHT22;6408;59.388;17.798;2023-02-13T05:48:04;1.10;99.90
12688;DHT22;6408;59.388;17.798;2023-02-13T05:50:31;1.20;99.90
12688;DHT22;6408;59.388;17.798;2023-02-13T05:52:58;1.20;99.90
12688;DHT22;6408;59.388;17.798;2023-02-13T05:55:26;1.30;99.90
12688;DHT22;6408;59.388;17.798;2023-02-13T05:57:55;1.50;99.90
12688;DHT22;6408;59.388;17.798;2023-02-13T06:00:22;1.50;99.90
12688;DHT22;6408;59.388;17.798;2023-02-13T06:02:50;1.50;99.90
12688;DHT22;6408;59.388;17.798;2023-02-13T06:05:18;1.50;99.90
12688;DHT22;6408;59.388;17.798;2023-02-13T06:07:46;1.50;99.90
12688;DHT22;6408;59.388;17.798;2023-02-13T06:10:13;1.60;99.90
12688;DHT22;6408;59.388;17.798;2023-02-13T06:12:42;1.60;99.90
12688;DHT22;6408;59.388;17.798;2023-02-13T06:15:09;1.60;99.90
12688;DHT22;6408;59.388;17.798;2023-02-13T06:17:36;1.60;99.90
12688;DHT22;6408;59.388;17.798;2023-02-13T06:20:05;1.60;99.90
12688;DHT22;6408;59.388;17.798;2023-02-13T06:22:34;1.50;99.90
12688;DHT22;6408;59.388;17.798;2023-02-13T06:25:01;1.50;99.90
12688;DHT22;6408;59.388;17.798;2023-02-13T06:27:29;1.50;99.90
12688;DHT22;6408;59.388;17.798;2023-02-13T06:29:56;1.50;99.90
12688;DHT22;6408;59.388;17.798;2023-02-13T06:32:23;1.60;99.90
12688;DHT22;6408;59.388;17.798;2023-02-13T06:34:50;1.60;99.90
12688;DHT22;6408;59.388;17.798;2023-02-13T06:37:18;1.60;99.90
12688;DHT22;6408;59.388;17.798;2023-02-13T06:39:47;1.50;99.90
12688;DHT22;6408;59.388;17.798;2023-02-13T06:42:14;1.50;99.90
12688;DHT22;6408;59.388;17.798;2023-02-13T06:44:43;1.50;99.90
12688;DHT22;6408;59.388;17.798;2023-02-13T06:47:10;1.50;99.90
12688;DHT22;6408;59.388;17.798;2023-02-13T06:49:37;1.50;99.90
12688;DHT22;6408;59.388;17.798;2023-02-13T06:52:05;1.50;99.90
12688;DHT22;6408;59.388;17.798;2023-02-13T06:54:32;1.60;99.90
12688;DHT22;6408;59.388;17.798;2023-02-13T06:57:01;1.60;99.90
12688;DHT22;6408;59.388;17.798;2023-02-13T06:59:29;1.60;99.90
12688;DHT22;6408;59.388;17.798;2023-02-13T07:01:56;1.70;99.90
12688;DHT22;6408;59.388;17.798;2023-02-13T07:04:24;1.80;99.90
12688;DHT22;6408;59.388;17.798;2023-02-13T07:06:53;1.80;99.90
12688;DHT22;6408;59.388;17.798;2023-02-13T07:09:21;1.90;99.90
12688;DHT22;6408;59.388;17.798;2023-02-13T07:11:49;1.90;99.90
12688;DHT22;6408;59.388;17.798;2023-02-13T07:14:18;2.00;99.90
12688;DHT22;6408;59.388;17.798;2023-02-13T07:16:45;2.00;99.90
12688;DHT22;6408;59.388;17.798;2023-02-13T07:19:13;2.00;99.90
12688;DHT22;6408;59.388;17.798;2023-02-13T07:21:40;2.00;99.90
12688;DHT22;6408;59.388;17.798;2023-02-13T07:24:07;2.00;99.90
12688;DHT22;6408;59.388;17.798;2023-02-13T07:26:35;2.10;99.90
12688;DHT22;6408;59.388;17.798;2023-02-13T07:29:03;2.10;99.90
12688;DHT22;6408;59.388;17.798;2023-02-13T07:31:33;2.10;99.90
12688;DHT22;6408;59.388;17.798;2023-02-13T07:34:01;2.10;99.90
12688;DHT22;6408;59.388;17.798;2023-02-13T07:36:28;2.10;99.90
12688;DHT22;6408;59.388;17.798;2023-02-13T07:38:56;2.20;99.90
12688;DHT22;6408;59.388;17.798;2023-02-13T07:41:23;2.20;99.90
12688;DHT22;6408;59.388;17.798;2023-02-13T07:43:51;2.20;99.90
12688;DHT22;6408;59.388;17.798;2023-02-13T07:46:19;2.30;99.90
12688;DHT22;6408;59.388;17.798;2023-02-13T07:48:48;2.30;99.90
12688;DHT22;6408;59.388;17.798;2023-02-13T07:51:17;2.30;99.90
12688;DHT22;6408;59.388;17.798;2023-02-13T07:53:44;2.30;99.90
12688;DHT22;6408;59.388;17.798;2023-02-13T07:56:12;2.30;99.90
12688;DHT22;6408;59.388;17.798;2023-02-13T07:58:39;2.40;99.90
12688;DHT22;6408;59.388;17.798;2023-02-13T08:01:07;2.40;99.90
12688;DHT22;6408;59.388;17.798;2023-02-13T08:03:35;2.50;99.90
12688;DHT22;6408;59.388;17.798;2023-02-13T08:06:05;2.50;99.90
12688;DHT22;6408;59.388;17.798;2023-02-13T08:08:33;2.50;99.90
12688;DHT22;6408;59.388;17.798;2023-02-13T08:11:05;2.50;99.90
12688;DHT22;6408;59.388;17.798;2023-02-13T08:13:50;2.60;99.90
12688;DHT22;6408;59.388;17.798;2023-02-13T08:16:17;2.60;99.90
12688;DHT22;6408;59.388;17.798;2023-02-13T08:18:45;2.70;99.90
12688;DHT22;6408;59.388;17.798;2023-02-13T08:21:14;2.70;99.90
12688;DHT22;6408;59.388;17.798;2023-02-13T08:23:41;2.80;99.90
12688;DHT22;6408;59.388;17.798;2023-02-13T08:26:08;2.80;99.90
12688;DHT22;6408;59.388;17.798;2023-02-13T08:28:36;2.80;99.90
12688;DHT22;6408;59.388;17.798;2023-02-13T08:31:09;2.90;99.90
12688;DHT22;6408;59.388;17.798;2023-02-13T08:33:37;2.90;99.90
12688;DHT22;6408;59.388;17.798;2023-02-13T08:36:06;2.90;99.90
12688;DHT22;6408;59.388;17.798;2023-02-13T08:38:35;3.00;99.90
12688;DHT22;6408;59.388;17.798;2023-02-13T08:41:02;3.00;99.90
12688;DHT22;6408;59.388;17.798;2023-02-13T08:43:30;3.10;99.90
12688;DHT22;6408;59.388;17.798;2023-02-13T08:45:58;3.10;99.90
12688;DHT22;6408;59.388;17.798;2023-02-13T08:48:26;3.20;99.90
12688;DHT22;6408;59.388;17.798;2023-02-13T08:50:53;3.20;99.90
12688;DHT22;6408;59.388;17.798;2023-02-13T08:53:21;3.30;99.90
12688;DHT22;6408;59.388;17.798;2023-02-13T08:55:53;3.40;99.90
12688;DHT22;6408;59.388;17.798;2023-02-13T08:58:21;3.50;99.90
12688;DHT22;6408;59.388;17.798;2023-02-13T09:00:49;3.60;99.90
12688;DHT22;6408;59.388;17.798;2023-02-13T09:03:16;3.70;99.90
12688;DHT22;6408;59.388;17.798;2023-02-13T09:05:44;3.70;99.90
12688;DHT22;6408;59.388;17.798;2023-02-13T09:08:12;3.80;99.90
12688;DHT22;6408;59.388;17.798;2023-02-13T09:10:40;3.90;99.90
12688;DHT22;6408;59.388;17.798;2023-02-13T09:13:09;4.10;99.90
12688;DHT22;6408;59.388;17.798;2023-02-13T09:15:37;4.20;99.90
12688;DHT22;6408;59.388;17.798;2023-02-13T09:18:05;4.30;99.90
12688;DHT22;6408;59.388;17.798;2023-02-13T09:20:33;4.40;99.90
12688;DHT22;6408;59.388;17.798;2023-02-13T09:23:00;4.50;99.90
12688;DHT22;6408;59.388;17.798;2023-02-13T09:25:28;4.60;99.90
12688;DHT22;6408;59.388;17.798;2023-02-13T09:27:55;4.60;99.90
12688;DHT22;6408;59.388;17.798;2023-02-13T09:30:24;4.90;99.90
12688;DHT22;6408;59.388;17.798;2023-02-13T09:32:53;5.20;99.90
12688;DHT22;6408;59.388;17.798;2023-02-13T09:35:21;5.40;99.90
12688;DHT22;6408;59.388;17.798;2023-02-13T09:37:49;5.60;99.90
12688;DHT22;6408;59.388;17.798;2023-02-13T09:40:20;5.90;99.90
12688;DHT22;6408;59.388;17.798;2023-02-13T09:42:49;6.20;99.90
12688;DHT22;6408;59.388;17.798;2023-02-13T09:45:19;6.50;99.90
12688;DHT22;6408;59.388;17.798;2023-02-13T09:47:49;6.70;99.90
12688;DHT22;6408;59.388;17.798;2023-02-13T09:50:20;6.80;99.90
12688;DHT22;6408;59.388;17.798;2023-02-13T09:52:50;6.80;99.90
12688;DHT22;6408;59.388;17.798;2023-02-13T09:55:19;6.60;99.90
12688;DHT22;6408;59.388;17.798;2023-02-13T09:57:53;6.40;99.90
12688;DHT22;6408;59.388;17.798;2023-02-13T10:00:28;6.50;99.90
12688;DHT22;6408;59.388;17.798;2023-02-13T10:03:20;6.50;99.90
12688;DHT22;6408;59.388;17.798;2023-02-13T10:05:57;6.40;99.90
12688;DHT22;6408;59.388;17.798;2023-02-13T10:08:38;6.60;99.90
12688;DHT22;6408;59.388;17.798;2023-02-13T10:11:19;6.70;99.90
12688;DHT22;6408;59.388;17.798;2023-02-13T10:14:00;6.90;99.90
12688;DHT22;6408;59.388;17.798;2023-02-13T10:16:35;7.10;99.90
12688;DHT22;6408;59.388;17.798;2023-02-13T10:19:12;7.70;99.90
12688;DHT22;6408;59.388;17.798;2023-02-13T10:21:46;8.10;99.90
12688;DHT22;6408;59.388;17.798;2023-02-13T10:24:24;8.20;99.90
12688;DHT22;6408;59.388;17.798;2023-02-13T10:26:56;8.10;99.90
12688;DHT22;6408;59.388;17.798;2023-02-13T10:29:31;7.70;99.90
12688;DHT22;6408;59.388;17.798;2023-02-13T10:32:24;7.70;99.90
12688;DHT22;6408;59.388;17.798;2023-02-13T10:34:57;8.00;99.90
12688;DHT22;6408;59.388;17.798;2023-02-13T10:37:27;8.00;99.90
12688;DHT22;6408;59.388;17.798;2023-02-13T10:39:55;8.10;99.90
12688;DHT22;6408;59.388;17.798;2023-02-13T10:42:28;8.10;99.90
12688;DHT22;6408;59.388;17.798;2023-02-13T10:45:13;7.90;99.90
12688;DHT22;6408;59.388;17.798;2023-02-13T10:47:56;7.90;99.90
12688;DHT22;6408;59.388;17.798;2023-02-13T10:50:33;7.60;99.90
12688;DHT22;6408;59.388;17.798;2023-02-13T10:53:11;7.60;99.90
12688;DHT22;6408;59.388;17.798;2023-02-13T10:56:04;7.70;99.90
12688;DHT22;6408;59.388;17.798;2023-02-13T10:58:46;7.60;99.90
12688;DHT22;6408;59.388;17.798;2023-02-13T11:01:20;7.60;99.90
12688;DHT22;6408;59.388;17.798;2023-02-13T11:04:01;7.50;99.90
12688;DHT22;6408;59.388;17.798;2023-02-13T11:06:32;7.40;99.90
12688;DHT22;6408;59.388;17.798;2023-02-13T11:09:04;7.50;99.90
12688;DHT22;6408;59.388;17.798;2023-02-13T11:11:34;7.50;99.90
12688;DHT22;6408;59.388;17.798;2023-02-13T11:14:11;7.50;99.90
12688;DHT22;6408;59.388;17.798;2023-02-13T11:16:57;7.60;99.90
12688;DHT22;6408;59.388;17.798;2023-02-13T11:19:30;7.60;99.90
12688;DHT22;6408;59.388;17.798;2023-02-13T11:22:02;7.80;99.90
12688;DHT22;6408;59.388;17.798;2023-02-13T11:24:31;8.00;99.90
12688;DHT22;6408;59.388;17.798;2023-02-13T11:27:00;8.40;99.90
12688;DHT22;6408;59.388;17.798;2023-02-13T11:29:33;8.70;99.90
12688;DHT22;6408;59.388;17.798;2023-02-13T11:32:16;8.90;99.90
12688;DHT22;6408;59.388;17.798;2023-02-13T11:34:44;9.10;99.90
12688;DHT22;6408;59.388;17.798;2023-02-13T11:37:19;9.60;99.90
12688;DHT22;6408;59.388;17.798;2023-02-13T11:39:48;9.90;99.90
12688;DHT22;6408;59.388;17.798;2023-02-13T11:42:23;10.10;99.90
12688;DHT22;6408;59.388;17.798;2023-02-13T11:44:53;9.80;99.90
12688;DHT22;6408;59.388;17.798;2023-02-13T11:47:37;9.30;99.90
12688;DHT22;6408;59.388;17.798;2023-02-13T11:50:18;9.00;99.90
12688;DHT22;6408;59.388;17.798;2023-02-13T11:52:56;8.90;99.90
12688;DHT22;6408;59.388;17.798;2023-02-13T11:55:28;8.70;99.90
12688;DHT22;6408;59.388;17.798;2023-02-13T11:57:58;8.20;99.90
12688;DHT22;6408;59.388;17.798;2023-02-13T12:00:29;7.90;99.90
12688;DHT22;6408;59.388;17.798;2023-02-13T12:03:00;7.70;99.90
12688;DHT22;6408;59.388;17.798;2023-02-13T12:05:27;7.50;99.90
12688;DHT22;6408;59.388;17.798;2023-02-13T12:07:59;7.40;99.90
12688;DHT22;6408;59.388;17.798;2023-02-13T12:10:28;7.40;99.90
12688;DHT22;6408;59.388;17.798;2023-02-13T12:12:57;7.30;99.90
12688;DHT22;6408;59.388;17.798;2023-02-13T12:15:26;7.50;99.90
12688;DHT22;6408;59.388;17.798;2023-02-13T12:18:04;7.50;99.90
12688;DHT22;6408;59.388;17.798;2023-02-13T12:20:39;7.50;99.90
12688;DHT22;6408;59.388;17.798;2023-02-13T12:23:21;7.50;99.90
12688;DHT22;6408;59.388;17.798;2023-02-13T12:26:04;7.50;99.90
12688;DHT22;6408;59.388;17.798;2023-02-13T12:28:51;7.60;99.90
12688;DHT22;6408;59.388;17.798;2023-02-13T12:31:37;7.60;99.90
12688;DHT22;6408;59.388;17.798;2023-02-13T12:37:18;7.40;99.90
12688;DHT22;6408;59.388;17.798;2023-02-13T12:40:01;7.20;99.90
12688;DHT22;6408;59.388;17.798;2023-02-13T12:42:38;7.20;99.90
12688;DHT22;6408;59.388;17.798;2023-02-13T12:45:14;7.20;99.90
12688;DHT22;6408;59.388;17.798;2023-02-13T12:47:59;7.30;99.90
12688;DHT22;6408;59.388;17.798;2023-02-13T12:50:34;7.40;99.90
12688;DHT22;6408;59.388;17.798;2023-02-13T12:53:24;7.40;99.90
12688;DHT22;6408;59.388;17.798;2023-02-13T12:56:14;7.30;99.90
12688;DHT22;6408;59.388;17.798;2023-02-13T12:59:06;7.30;99.90
12688;DHT22;6408;59.388;17.798;2023-02-13T13:01:57;7.30;99.90
12688;DHT22;6408;59.388;17.798;2023-02-13T13:04:46;7.40;99.90
12688;DHT22;6408;59.388;17.798;2023-02-13T13:07:28;7.60;99.90
12688;DHT22;6408;59.388;17.798;2023-02-13T13:10:27;7.50;99.90
12688;DHT22;6408;59.388;17.798;2023-02-13T13:13:06;7.50;99.90
12688;DHT22;6408;59.388;17.798;2023-02-13T13:15:41;7.40;99.90
12688;DHT22;6408;59.388;17.798;2023-02-13T13:18:21;7.30;99.90
12688;DHT22;6408;59.388;17.798;2023-02-13T13:23:49;7.50;99.90
12688;DHT22;6408;59.388;17.798;2023-02-13T13:26:26;7.70;99.90
12688;DHT22;6408;59.388;17.798;2023-02-13T13:29:00;7.80;99.90
12688;DHT22;6408;59.388;17.798;2023-02-13T13:31:33;7.80;99.90
12688;DHT22;6408;59.388;17.798;2023-02-13T13:34:05;7.80;99.90
12688;DHT22;6408;59.388;17.798;2023-02-13T13:36:39;7.70;99.90
12688;DHT22;6408;59.388;17.798;2023-02-13T13:39:15;7.80;99.90
12688;DHT22;6408;59.388;17.798;2023-02-13T13:41:52;7.80;99.90
12688;DHT22;6408;59.388;17.798;2023-02-13T13:47:31;7.80;99.90
12688;DHT22;6408;59.388;17.798;2023-02-13T13:50:04;7.70;99.90
12688;DHT22;6408;59.388;17.798;2023-02-13T13:52:32;7.70;99.90
12688;DHT22;6408;59.388;17.798;2023-02-13T13:55:02;7.50;99.90
12688;DHT22;6408;59.388;17.798;2023-02-13T14:00:30;7.10;99.90
12688;DHT22;6408;59.388;17.798;2023-02-13T14:03:23;7.00;99.90
12688;DHT22;6408;59.388;17.798;2023-02-13T14:06:02;6.90;99.90
12688;DHT22;6408;59.388;17.798;2023-02-13T14:11:41;6.80;99.90
12688;DHT22;6408;59.388;17.798;2023-02-13T14:19:59;6.50;99.90
12688;DHT22;6408;59.388;17.798;2023-02-13T14:22:33;6.50;99.90
12688;DHT22;6408;59.388;17.798;2023-02-13T14:25:05;6.40;99.90
12688;DHT22;6408;59.388;17.798;2023-02-13T14:27:35;6.40;99.90
12688;DHT22;6408;59.388;17.798;2023-02-13T14:30:06;6.30;99.90
12688;DHT22;6408;59.388;17.798;2023-02-13T14:32:49;6.30;99.90
12688;DHT22;6408;59.388;17.798;2023-02-13T14:35:25;6.20;99.90
12688;DHT22;6408;59.388;17.798;2023-02-13T14:37:54;6.10;99.90
12688;DHT22;6408;59.388;17.798;2023-02-13T14:40:43;6.20;99.90
12688;DHT22;6408;59.388;17.798;2023-02-13T14:43:30;6.10;99.90
12688;DHT22;6408;59.388;17.798;2023-02-13T14:46:07;6.10;99.90
12688;DHT22;6408;59.388;17.798;2023-02-13T14:48:40;6.00;99.90
12688;DHT22;6408;59.388;17.798;2023-02-13T14:51:16;6.00;99.90
12688;DHT22;6408;59.388;17.798;2023-02-13T14:53:57;6.00;99.90
12688;DHT22;6408;59.388;17.798;2023-02-13T14:56:26;6.00;99.90
12688;DHT22;6408;59.388;17.798;2023-02-13T14:59:00;6.00;99.90
12688;DHT22;6408;59.388;17.798;2023-02-13T15:01:31;5.90;99.90
12688;DHT22;6408;59.388;17.798;2023-02-13T15:04:06;5.90;99.90
12688;DHT22;6408;59.388;17.798;2023-02-13T15:06:40;5.90;99.90
12688;DHT22;6408;59.388;17.798;2023-02-13T15:09:18;5.80;99.90
12688;DHT22;6408;59.388;17.798;2023-02-13T15:11:48;5.80;99.90
12688;DHT22;6408;59.388;17.798;2023-02-13T15:14:23;5.80;99.90
12688;DHT22;6408;59.388;17.798;2023-02-13T15:16:58;5.70;99.90
12688;DHT22;6408;59.388;17.798;2023-02-13T15:19:29;5.70;99.90
12688;DHT22;6408;59.388;17.798;2023-02-13T15:21:57;5.70;99.90
12688;DHT22;6408;59.388;17.798;2023-02-13T15:24:26;5.60;99.90
12688;DHT22;6408;59.388;17.798;2023-02-13T15:27:00;5.60;99.90
12688;DHT22;6408;59.388;17.798;2023-02-13T15:29:29;5.60;99.90
12688;DHT22;6408;59.388;17.798;2023-02-13T15:31:57;5.60;99.90
12688;DHT22;6408;59.388;17.798;2023-02-13T15:34:29;5.50;99.90
12688;DHT22;6408;59.388;17.798;2023-02-13T15:37:00;5.40;99.90
12688;DHT22;6408;59.388;17.798;2023-02-13T15:39:29;5.40;99.90
12688;DHT22;6408;59.388;17.798;2023-02-13T15:41:59;5.30;99.90
12688;DHT22;6408;59.388;17.798;2023-02-13T15:44:28;5.30;99.90
12688;DHT22;6408;59.388;17.798;2023-02-13T15:47:01;5.30;99.90
12688;DHT22;6408;59.388;17.798;2023-02-13T15:49:34;5.20;99.90
12688;DHT22;6408;59.388;17.798;2023-02-13T15:52:04;5.20;99.90
12688;DHT22;6408;59.388;17.798;2023-02-13T15:54:33;5.20;99.90
12688;DHT22;6408;59.388;17.798;2023-02-13T15:57:03;5.20;99.90
12688;DHT22;6408;59.388;17.798;2023-02-13T15:59:33;5.10;99.90
12688;DHT22;6408;59.388;17.798;2023-02-13T16:02:03;5.00;99.90
12688;DHT22;6408;59.388;17.798;2023-02-13T16:04:32;5.10;99.90
12688;DHT22;6408;59.388;17.798;2023-02-13T16:07:00;5.00;99.90
12688;DHT22;6408;59.388;17.798;2023-02-13T16:09:30;5.00;99.90
12688;DHT22;6408;59.388;17.798;2023-02-13T16:12:13;5.00;99.90
12688;DHT22;6408;59.388;17.798;2023-02-13T16:14:47;4.90;99.90
12688;DHT22;6408;59.388;17.798;2023-02-13T16:17:21;5.00;99.90
12688;DHT22;6408;59.388;17.798;2023-02-13T16:19:57;5.00;99.90
12688;DHT22;6408;59.388;17.798;2023-02-13T16:22:30;5.10;99.90
12688;DHT22;6408;59.388;17.798;2023-02-13T16:25:13;5.10;99.90
12688;DHT22;6408;59.388;17.798;2023-02-13T16:27:43;5.10;99.90
12688;DHT22;6408;59.388;17.798;2023-02-13T16:30:29;5.10;99.90
12688;DHT22;6408;59.388;17.798;2023-02-13T16:33:11;5.10;99.90
12688;DHT22;6408;59.388;17.798;2023-02-13T16:35:47;5.10;99.90
12688;DHT22;6408;59.388;17.798;2023-02-13T16:38:33;5.00;99.90
12688;DHT22;6408;59.388;17.798;2023-02-13T16:41:02;5.00;99.90
12688;DHT22;6408;59.388;17.798;2023-02-13T16:43:42;4.90;99.90
12688;DHT22;6408;59.388;17.798;2023-02-13T16:46:23;4.90;99.90
12688;DHT22;6408;59.388;17.798;2023-02-13T16:49:14;4.80;99.90
12688;DHT22;6408;59.388;17.798;2023-02-13T16:51:45;4.90;99.90
12688;DHT22;6408;59.388;17.798;2023-02-13T16:54:27;4.90;99.90
12688;DHT22;6408;59.388;17.798;2023-02-13T16:56:57;4.90;99.90
12688;DHT22;6408;59.388;17.798;2023-02-13T16:59:29;4.80;99.90
12688;DHT22;6408;59.388;17.798;2023-02-13T17:02:16;4.80;99.90